Time;durP1;ratioP1;P1;durP2;ratioP2;P2;SDS_P1;SDS_P2;PMS_P1;PMS_P2;Temp;Humidity;BMP_temperature;BMP_pressure;BME280_temperature;BME280_humidity;BME280_pressure;Samples;Min_cycle;Max_cycle;Signal;HPM_P1;HPM_P2
2024/02/18 00:02:01;;;;;;;4.38;2.20;;;;;;;15.35;55.16;100300.25;5074384;28;20024;-48
2024/02/18 00:04:28;;;;;;;7.85;3.53;;;;;;;15.44;54.83;100308.03;5073060;28;20028;-48
2024/02/18 00:06:53;;;;;;;7.78;2.42;;;;;;;15.35;54.84;100304.69;5074363;28;20055;-48
2024/02/18 00:09:19;;;;;;;4.65;2.53;;;;;;;15.20;54.70;100307.44;5074279;28;20067;-48
2024/02/18 00:11:45;;;;;;;4.97;3.10;;;;;;;14.84;55.29;100316.25;5074287;28;20028;-48
2024/02/18 00:14:11;;;;;;;5.10;2.30;;;;;;;14.60;56.50;100322.69;5072968;28;20060;-48
2024/02/18 00:16:36;;;;;;;5.13;2.65;;;;;;;14.65;56.96;100324.78;5072888;28;20032;-49
2024/02/18 00:19:02;;;;;;;11.75;8.10;;;;;;;14.84;57.11;100318.09;5074182;28;20021;-49
2024/02/18 00:21:29;;;;;;;5.40;3.10;;;;;;;14.99;56.80;100318.84;5074095;28;20027;-49
2024/02/18 00:23:57;;;;;;;5.70;2.67;;;;;;;15.01;56.37;100321.28;5073745;28;20119;-48
2024/02/18 00:26:23;;;;;;;7.68;2.88;;;;;;;15.07;56.36;100317.88;5072979;28;20403;-48
2024/02/18 00:28:49;;;;;;;6.63;2.88;;;;;;;15.05;56.34;100312.81;5072775;28;20031;-49
2024/02/18 00:31:15;;;;;;;9.50;3.10;;;;;;;15.03;55.97;100319.28;5072640;28;20502;-49
2024/02/18 00:33:41;;;;;;;4.78;2.50;;;;;;;14.97;56.10;100318.22;5073917;28;20021;-49
2024/02/18 00:36:07;;;;;;;5.63;2.63;;;;;;;14.92;55.73;100324.06;5072575;28;20580;-49
2024/02/18 00:38:35;;;;;;;5.50;2.70;;;;;;;14.69;56.33;100321.59;5073815;28;20020;-48
2024/02/18 00:41:06;;;;;;;6.85;2.58;;;;;;;14.56;56.48;100313.50;5073791;28;20021;-49
2024/02/18 00:43:32;;;;;;;5.85;2.72;;;;;;;14.59;56.43;100305.22;5073687;28;20039;-49
2024/02/18 00:45:58;;;;;;;6.95;2.38;;;;;;;14.25;57.19;100316.38;5073679;28;20036;-48
2024/02/18 00:48:24;;;;;;;6.40;2.67;;;;;;;14.32;57.82;100304.06;5073476;28;20032;-48
2024/02/18 00:50:50;;;;;;;5.35;2.42;;;;;;;14.34;57.35;100308.13;5073573;28;20024;-48
2024/02/18 00:53:15;;;;;;;5.28;2.70;;;;;;;14.20;57.53;100314.25;5073566;28;20029;-48
2024/02/18 00:55:44;;;;;;;6.18;3.15;;;;;;;14.05;58.07;100316.13;5073421;28;20028;-49
2024/02/18 00:58:13;;;;;;;5.78;2.45;;;;;;;13.96;58.89;100310.94;5073432;28;20517;-49
2024/02/18 01:00:39;;;;;;;4.80;2.45;;;;;;;14.11;58.80;100304.81;5072053;28;20414;-49
2024/02/18 01:03:06;;;;;;;5.53;3.05;;;;;;;14.12;58.60;100309.91;5073260;28;20032;-48
2024/02/18 01:05:31;;;;;;;7.35;2.58;;;;;;;14.12;58.77;100301.16;5073264;28;20490;-49
2024/02/18 01:07:57;;;;;;;9.73;3.03;;;;;;;14.26;58.56;100297.69;5071932;28;20040;-48
2024/02/18 01:10:23;;;;;;;6.35;2.55;;;;;;;14.37;58.00;100299.06;5073145;28;20076;-49
2024/02/18 01:12:49;;;;;;;6.50;2.30;;;;;;;14.44;58.01;100294.66;5073371;28;20089;-48
2024/02/18 01:15:15;;;;;;;4.95;2.30;;;;;;;14.68;57.86;100287.44;5071482;28;20439;-48
2024/02/18 01:17:41;;;;;;;6.35;3.35;;;;;;;14.74;57.00;100294.59;5071814;28;20086;-49
2024/02/18 01:20:07;;;;;;;9.23;3.00;;;;;;;14.72;56.85;100301.91;5073006;28;20490;-48
2024/02/18 01:22:33;;;;;;;7.50;3.55;;;;;;;14.90;57.05;100296.19;5072586;28;20032;-49
2024/02/18 01:25:00;;;;;;;6.85;2.45;;;;;;;15.10;56.18;100291.09;5055031;28;20047;-49
2024/02/18 01:27:25;;;;;;;9.15;2.60;;;;;;;14.94;55.98;100300.09;5072794;28;20059;-49
2024/02/18 01:29:51;;;;;;;6.00;2.60;;;;;;;14.75;56.09;100302.34;5071442;28;20037;-48
2024/02/18 01:32:17;;;;;;;7.60;2.67;;;;;;;14.59;56.88;100305.22;5072668;28;20032;-48
2024/02/18 01:34:43;;;;;;;6.35;2.45;;;;;;;14.55;57.14;100310.03;5072987;28;20069;-48
2024/02/18 01:37:08;;;;;;;6.63;2.78;;;;;;;14.45;57.14;100313.97;5072619;28;20008;-48
2024/02/18 01:39:35;;;;;;;5.25;2.28;;;;;;;14.19;57.44;100316.09;5072592;28;20031;-48
2024/02/18 01:42:01;;;;;;;7.25;2.50;;;;;;;13.93;58.78;100313.09;5072485;28;20017;-48
2024/02/18 01:44:27;;;;;;;8.27;2.78;;;;;;;14.09;59.28;100317.38;5072749;28;20126;-49
2024/02/18 01:46:53;;;;;;;7.88;2.50;;;;;;;14.32;58.91;100322.53;5072458;28;20013;-49
2024/02/18 01:49:19;;;;;;;8.32;3.13;;;;;;;14.70;57.92;100314.47;5072406;28;20031;-49
2024/02/18 01:51:46;;;;;;;5.55;2.45;;;;;;;14.92;57.31;100318.78;5072345;28;20506;-48
2024/02/18 01:54:12;;;;;;;5.70;2.40;;;;;;;15.11;56.80;100316.50;5071185;28;20542;-49
2024/02/18 01:56:41;;;;;;;7.38;2.20;;;;;;;15.05;56.13;100320.75;5070935;28;20021;-49
2024/02/18 01:59:07;;;;;;;6.25;2.83;;;;;;;15.04;56.16;100326.22;5054355;28;20027;-48
2024/02/18 02:01:33;;;;;;;9.15;2.83;;;;;;;14.95;55.96;100328.16;5072152;28;20017;-48
2024/02/18 02:04:01;;;;;;;11.50;6.57;;;;;;;14.89;56.63;100320.97;5072087;28;20031;-48
2024/02/18 02:06:29;;;;;;;6.00;4.22;;;;;;;15.01;56.52;100323.94;5072115;28;20021;-49
2024/02/18 02:08:56;;;;;;;8.40;5.50;;;;;;;14.99;56.37;100326.78;5070788;28;20028;-48
2024/02/18 02:11:22;;;;;;;5.85;2.67;;;;;;;14.92;56.49;100324.06;5072011;28;20066;-48
2024/02/18 02:13:48;;;;;;;6.88;2.92;;;;;;;15.03;56.40;100321.91;5072032;28;20028;-49
2024/02/18 02:16:14;;;;;;;8.77;2.33;;;;;;;15.02;56.34;100315.00;5071008;28;20085;-49
2024/02/18 02:18:40;;;;;;;3.80;2.13;;;;;;;15.01;56.17;100316.00;5071901;28;20028;-49
2024/02/18 02:21:06;;;;;;;11.52;5.60;;;;;;;14.93;55.89;100303.72;5071921;28;20047;-49
2024/02/18 02:23:34;;;;;;;7.97;3.00;;;;;;;14.52;56.51;100302.47;5070323;28;20044;-49
2024/02/18 02:26:01;;;;;;;15.07;11.15;;;;;;;14.34;57.81;100302.03;5070399;28;20437;-48
2024/02/18 02:28:29;;;;;;;6.22;3.05;;;;;;;14.48;57.47;100303.84;5071382;28;20127;-49
2024/02/18 02:30:55;;;;;;;6.93;2.67;;;;;;;14.55;57.51;100290.72;5070498;28;20033;-49
2024/02/18 02:33:23;;;;;;;11.50;6.30;;;;;;;14.61;56.96;100289.16;5071798;28;20101;-48
2024/02/18 02:35:51;;;;;;;8.15;2.92;;;;;;;14.48;57.79;100293.28;5071836;28;20028;-48
2024/02/18 02:38:17;;;;;;;5.70;2.70;;;;;;;14.43;57.36;100290.38;5071814;28;20020;-49
2024/02/18 02:40:43;;;;;;;5.18;2.75;;;;;;;14.44;57.93;100288.56;5070510;28;20482;-49
2024/02/18 02:43:10;;;;;;;4.72;2.50;;;;;;;14.53;57.80;100287.44;5072078;28;20035;-49
2024/02/18 02:45:37;;;;;;;7.95;2.60;;;;;;;14.61;57.75;100286.53;5071684;28;20024;-49
2024/02/18 02:48:03;;;;;;;7.72;2.53;;;;;;;14.66;57.40;100284.97;5071953;28;20033;-49
2024/02/18 02:50:29;;;;;;;4.50;2.30;;;;;;;14.59;56.79;100289.38;5070326;28;20115;-48
2024/02/18 02:52:55;;;;;;;7.50;2.47;;;;;;;14.36;57.58;100286.84;5053690;28;20115;-49
2024/02/18 02:55:20;;;;;;;4.18;2.20;;;;;;;14.21;57.97;100294.78;5070562;28;20504;-48
2024/02/18 02:57:48;;;;;;;14.88;9.13;;;;;;;13.87;58.09;100290.91;5070516;28;20064;-49
2024/02/18 03:00:14;;;;;;;7.97;4.88;;;;;;;13.84;59.44;100295.72;5071548;28;20025;-48
2024/02/18 03:02:41;;;;;;;13.90;8.65;;;;;;;13.91;59.43;100288.72;5070120;28;20028;-49
2024/02/18 03:05:11;;;;;;;5.82;4.22;;;;;;;13.96;59.37;100283.69;5071383;28;20025;-49
2024/02/18 03:07:37;;;;;;;5.57;2.38;;;;;;;14.04;59.38;100282.78;5071389;28;20025;-49
2024/02/18 03:10:04;;;;;;;8.93;3.05;;;;;;;14.17;59.25;100275.84;5071468;28;20482;-48
2024/02/18 03:12:30;;;;;;;6.32;3.67;;;;;;;14.05;58.67;100271.25;5070147;28;20033;-49
2024/02/18 03:14:56;;;;;;;5.18;3.33;;;;;;;13.86;59.24;100275.25;5071457;28;20120;-49
2024/02/18 03:17:22;;;;;;;8.40;2.55;;;;;;;13.70;59.76;100266.53;5071624;28;20112;-49
2024/02/18 03:19:48;;;;;;;4.47;2.28;;;;;;;13.70;60.05;100260.41;5070177;28;20078;-49
2024/02/18 03:22:23;;;;;;;4.53;2.10;;;;;;;13.64;60.20;100266.41;5069970;28;20032;-49
2024/02/18 03:24:49;;;;;;;8.98;2.95;;;;;;;13.43;60.96;100257.38;5069861;28;20040;-49
2024/02/18 03:27:17;;;;;;;5.57;2.28;;;;;;;13.54;60.31;100259.59;5071346;28;20082;-49
2024/02/18 03:29:44;;;;;;;6.28;2.20;;;;;;;13.58;60.61;100254.75;5071294;28;20016;-49
2024/02/18 03:32:10;;;;;;;5.32;2.42;;;;;;;13.56;60.34;100259.38;5071492;28;20425;-49
2024/02/18 03:34:36;;;;;;;3.85;2.00;;;;;;;13.50;60.30;100252.19;5069878;28;20025;-49
2024/02/18 03:37:02;;;;;;;17.42;14.48;;;;;;;13.56;60.59;100254.13;5053264;28;20086;-48
2024/02/18 03:39:28;;;;;;;6.15;3.55;;;;;;;13.41;60.54;100263.84;5074173;28;20024;-48
2024/02/18 03:41:53;;;;;;;6.20;3.25;;;;;;;13.27;61.42;100274.16;5073454;28;20028;-49
2024/02/18 03:44:19;;;;;;;4.60;2.30;;;;;;;13.42;61.29;100273.38;5074833;28;20020;-49
2024/02/18 03:46:46;;;;;;;5.35;2.70;;;;;;;13.38;61.35;100273.75;5074736;28;20495;-48
2024/02/18 03:49:11;;;;;;;2.85;1.77;;;;;;;13.49;61.43;100276.94;5073304;28;20024;-48
2024/02/18 03:51:37;;;;;;;4.28;2.40;;;;;;;13.76;60.91;100281.63;5073619;28;20025;-49
2024/02/18 03:54:03;;;;;;;4.32;2.53;;;;;;;13.98;60.29;100290.44;5073640;28;20119;-49
2024/02/18 03:56:33;;;;;;;4.43;1.80;;;;;;;14.22;59.75;100282.41;5073246;28;20028;-48
2024/02/18 03:58:58;;;;;;;4.18;2.30;;;;;;;14.30;59.26;100288.38;5074809;28;20017;-49
2024/02/18 04:01:24;;;;;;;4.13;2.05;;;;;;;14.49;58.99;100287.00;5074490;28;20059;-49
2024/02/18 04:03:50;;;;;;;7.28;2.63;;;;;;;14.65;58.12;100280.69;5073078;28;20025;-49
2024/02/18 04:06:15;;;;;;;4.78;1.98;;;;;;;14.61;57.64;100281.22;5073069;28;20078;-48
2024/02/18 04:08:41;;;;;;;5.50;3.13;;;;;;;14.24;57.97;100293.59;5073041;28;20028;-49
2024/02/18 04:11:08;;;;;;;3.03;2.10;;;;;;;13.98;58.59;100301.00;5073023;28;20093;-48
2024/02/18 04:13:34;;;;;;;3.20;2.08;;;;;;;13.82;59.26;100295.06;5074236;28;20046;-48
2024/02/18 04:16:00;;;;;;;4.05;1.95;;;;;;;13.57;59.80;100293.50;5074257;28;20553;-49
2024/02/18 04:18:25;;;;;;;5.07;2.35;;;;;;;13.45;60.78;100292.31;5074193;28;20025;-49
2024/02/18 04:20:51;;;;;;;5.25;2.20;;;;;;;13.35;61.25;100294.38;5074151;28;20027;-49
2024/02/18 04:23:17;;;;;;;8.35;3.03;;;;;;;13.19;61.81;100290.84;5072691;28;20147;-48
2024/02/18 04:25:43;;;;;;;3.78;2.20;;;;;;;13.31;61.95;100293.91;5072887;28;20056;-49
2024/02/18 04:28:08;;;;;;;7.32;2.40;;;;;;;13.19;61.63;100284.75;5072742;28;20028;-49
2024/02/18 04:30:34;;;;;;;5.05;2.25;;;;;;;13.17;62.21;100289.41;5073977;28;20020;-49
2024/02/18 04:33:00;;;;;;;7.18;2.80;;;;;;;13.36;62.09;100291.56;5073945;28;20032;-48
2024/02/18 04:35:26;;;;;;;6.13;2.67;;;;;;;13.68;61.92;100281.72;5073878;28;20375;-48
2024/02/18 04:37:52;;;;;;;5.68;2.33;;;;;;;13.94;61.04;100267.22;5073801;28;20024;-48
2024/02/18 04:40:17;;;;;;;3.65;2.05;;;;;;;14.06;60.42;100267.56;5072459;28;20035;-48
2024/02/18 04:42:43;;;;;;;5.00;2.17;;;;;;;14.21;60.01;100267.56;5072424;28;20029;-49
2024/02/18 04:45:09;;;;;;;6.95;2.15;;;;;;;14.34;59.55;100262.44;5073678;28;20094;-49
2024/02/18 04:47:35;;;;;;;3.97;1.98;;;;;;;14.36;59.11;100266.50;5072393;28;20113;-49
2024/02/18 04:50:04;;;;;;;6.38;2.35;;;;;;;14.35;59.12;100253.53;5054877;28;20037;-49
2024/02/18 04:52:31;;;;;;;6.60;2.33;;;;;;;14.43;59.07;100261.31;5073574;28;20031;-49
2024/02/18 04:54:56;;;;;;;8.40;2.83;;;;;;;14.57;58.68;100255.22;5073488;28;20490;-49
2024/02/18 04:57:22;;;;;;;8.57;6.38;;;;;;;14.70;58.41;100253.69;5073398;28;20070;-49
2024/02/18 04:59:48;;;;;;;6.13;3.80;;;;;;;14.75;57.94;100260.06;5073424;28;20104;-48
2024/02/18 05:02:15;;;;;;;4.40;2.17;;;;;;;14.73;57.61;100259.44;5073546;28;20032;-48
2024/02/18 05:04:40;;;;;;;5.70;3.42;;;;;;;14.71;57.60;100253.53;5073350;28;20020;-49
2024/02/18 05:07:07;;;;;;;8.10;2.80;;;;;;;14.37;57.46;100252.31;5071950;28;20025;-49
2024/02/18 05:09:33;;;;;;;8.32;7.45;;;;;;;14.07;58.77;100254.19;5071948;28;20052;-49
2024/02/18 05:11:58;;;;;;;4.65;2.20;;;;;;;14.13;59.14;100255.28;5071839;28;20024;-48
2024/02/18 05:14:24;;;;;;;12.63;7.75;;;;;;;14.29;58.79;100248.97;5073123;28;20056;-48
2024/02/18 05:16:50;;;;;;;6.57;2.92;;;;;;;14.46;58.37;100250.38;5071767;28;20024;-48
2024/02/18 05:19:16;;;;;;;4.38;1.90;;;;;;;14.57;58.08;100244.63;5071739;28;20398;-48
2024/02/18 05:21:42;;;;;;;4.07;2.15;;;;;;;14.67;57.65;100246.13;5071637;28;20056;-48
2024/02/18 05:24:13;;;;;;;15.52;13.93;;;;;;;14.73;57.42;100251.50;5071350;28;20186;-49
2024/02/18 05:26:39;;;;;;;7.38;3.38;;;;;;;14.81;57.10;100253.22;5071615;28;20033;-49
2024/02/18 05:29:06;;;;;;;8.43;2.60;;;;;;;14.82;56.65;100262.75;5071535;28;20090;-49
2024/02/18 05:31:32;;;;;;;5.85;3.08;;;;;;;14.81;56.82;100258.50;5071429;28;20165;-48
2024/02/18 05:33:57;;;;;;;3.60;2.38;;;;;;;14.78;56.61;100248.28;5071473;28;20123;-49
2024/02/18 05:36:23;;;;;;;7.07;3.78;;;;;;;14.76;56.64;100245.00;5071337;28;20063;-49
2024/02/18 05:38:49;;;;;;;4.05;2.90;;;;;;;14.75;56.70;100248.69;5071360;28;20028;-48
2024/02/18 05:41:16;;;;;;;5.25;2.75;;;;;;;14.73;56.72;100240.13;5071272;28;20047;-48
2024/02/18 05:43:41;;;;;;;5.68;2.20;;;;;;;14.52;56.56;100236.41;5072463;28;20108;-49
2024/02/18 05:46:10;;;;;;;4.82;2.13;;;;;;;14.21;57.63;100246.44;5071222;28;20651;-48
2024/02/18 05:48:40;;;;;;;6.93;3.60;;;;;;;14.05;58.69;100240.38;5072388;28;20043;-49
2024/02/18 05:51:09;;;;;;;4.85;2.40;;;;;;;13.75;59.46;100245.66;5071174;28;20533;-49
2024/02/18 05:53:35;;;;;;;5.07;2.60;;;;;;;13.41;60.01;100248.03;5072279;28;20043;-49
2024/02/18 05:56:01;;;;;;;10.75;2.70;;;;;;;13.38;60.93;100247.38;5072336;28;20035;-49
2024/02/18 05:58:27;;;;;;;7.35;2.85;;;;;;;13.37;61.29;100248.38;5070954;28;20032;-49
2024/02/18 06:00:53;;;;;;;4.28;2.63;;;;;;;13.43;60.68;100246.84;5072261;28;20035;-49
2024/02/18 06:03:18;;;;;;;8.00;4.57;;;;;;;13.31;61.39;100250.91;5071081;28;20081;-49
2024/02/18 06:05:44;;;;;;;5.50;2.55;;;;;;;13.24;61.55;100248.16;5072067;28;20029;-48
2024/02/18 06:08:10;;;;;;;6.95;2.95;;;;;;;13.14;62.42;100242.31;5072151;28;20033;-49
2024/02/18 06:10:36;;;;;;;6.60;2.67;;;;;;;13.23;61.87;100251.78;5070706;28;20406;-48
2024/02/18 06:13:03;;;;;;;3.88;2.60;;;;;;;13.13;61.77;100256.47;5072072;28;20074;-48
2024/02/18 06:15:30;;;;;;;6.93;2.55;;;;;;;12.95;62.91;100257.59;5072030;28;20568;-49
2024/02/18 06:17:57;;;;;;;7.20;2.50;;;;;;;13.05;62.43;100260.00;5072053;28;20024;-49
2024/02/18 06:20:24;;;;;;;4.88;2.20;;;;;;;12.89;62.69;100262.78;5071921;28;20036;-49
2024/02/18 06:22:50;;;;;;;5.53;2.55;;;;;;;12.81;62.49;100257.56;5071606;28;20062;-49
2024/02/18 06:25:16;;;;;;;4.75;2.33;;;;;;;12.58;63.32;100256.56;5070571;28;20565;-49
2024/02/18 06:27:42;;;;;;;8.00;2.50;;;;;;;12.53;64.07;100263.34;5070579;28;20027;-48
2024/02/18 06:30:09;;;;;;;12.10;2.75;;;;;;;12.58;64.31;100261.81;5070530;28;20025;-49
2024/02/18 06:32:35;;;;;;;5.85;2.00;;;;;;;12.98;64.48;100249.34;5070553;28;20340;-47
2024/02/18 06:35:02;;;;;;;6.05;2.22;;;;;;;13.36;63.25;100244.09;5071829;28;20025;-46
2024/02/18 06:37:28;;;;;;;7.03;2.28;;;;;;;13.62;62.41;100248.13;5071721;28;20055;-47
2024/02/18 06:39:54;;;;;;;5.10;2.22;;;;;;;13.69;61.75;100254.31;5071798;28;20020;-46
2024/02/18 06:42:19;;;;;;;6.15;2.17;;;;;;;13.85;61.41;100257.78;5071648;28;20077;-46
2024/02/18 06:44:45;;;;;;;6.88;2.40;;;;;;;13.90;60.61;100250.94;5070413;28;20032;-47
2024/02/18 06:47:11;;;;;;;5.10;2.90;;;;;;;14.02;60.50;100258.38;5071684;28;20025;-47
2024/02/18 06:49:37;;;;;;;6.72;2.15;;;;;;;14.12;60.31;100259.72;5070340;28;20047;-47
2024/02/18 06:52:04;;;;;;;4.90;2.08;;;;;;;14.21;60.13;100264.94;5071611;28;20071;-47
2024/02/18 06:54:29;;;;;;;4.30;2.15;;;;;;;14.34;59.32;100262.44;5071638;28;20095;-47
2024/02/18 06:56:55;;;;;;;3.83;2.08;;;;;;;14.02;58.68;100275.03;5071639;28;20036;-47
2024/02/18 06:59:21;;;;;;;5.15;2.53;;;;;;;13.82;59.81;100276.59;5070558;28;20032;-47
2024/02/18 07:01:47;;;;;;;6.20;2.50;;;;;;;13.85;60.06;100270.97;5071535;28;20035;-46
2024/02/18 07:04:13;;;;;;;4.53;1.77;;;;;;;13.92;59.62;100271.88;5070213;28;20024;-47
2024/02/18 07:06:39;;;;;;;7.38;2.65;;;;;;;13.78;59.79;100276.97;5071475;28;20098;-47
2024/02/18 07:09:05;;;;;;;6.00;2.63;;;;;;;13.77;59.97;100283.25;5070211;28;20027;-47
2024/02/18 07:11:32;;;;;;;4.28;2.20;;;;;;;13.72;60.19;100277.72;5071430;28;20069;-47
2024/02/18 07:13:58;;;;;;;6.25;2.15;;;;;;;13.86;60.50;100277.88;5073830;28;20516;-47
2024/02/18 07:16:24;;;;;;;7.18;2.08;;;;;;;14.12;59.96;100272.13;5074048;28;20029;-47
2024/02/18 07:18:50;;;;;;;4.90;2.03;;;;;;;14.29;59.59;100278.03;5074081;28;20021;-46
2024/02/18 07:21:15;;;;;;;4.35;1.98;;;;;;;14.40;58.38;100277.53;5075304;28;20505;-47
2024/02/18 07:23:41;;;;;;;6.15;3.17;;;;;;;14.21;58.41;100272.84;5074898;28;20052;-47
2024/02/18 07:26:11;;;;;;;4.97;2.45;;;;;;;14.19;59.13;100281.78;5073897;28;20028;-47
2024/02/18 07:28:37;;;;;;;6.63;2.22;;;;;;;14.37;58.72;100278.72;5073950;28;20079;-47
2024/02/18 07:31:04;;;;;;;3.75;1.75;;;;;;;14.56;58.51;100273.88;5073806;28;20025;-47
2024/02/18 07:33:29;;;;;;;2.70;1.67;;;;;;;14.70;58.06;100277.47;5074072;28;20128;-47
2024/02/18 07:35:58;;;;;;;6.18;2.10;;;;;;;14.79;57.65;100273.72;5075056;28;20478;-47
2024/02/18 07:38:24;;;;;;;6.13;2.28;;;;;;;14.88;57.38;100261.19;5073707;28;20048;-47
2024/02/18 07:40:50;;;;;;;4.80;2.30;;;;;;;14.94;57.22;100263.88;5056924;28;20068;-47
2024/02/18 07:43:15;;;;;;;5.55;2.50;;;;;;;14.93;56.95;100266.72;5074742;28;20115;-47
2024/02/18 07:45:41;;;;;;;4.50;2.58;;;;;;;14.85;56.71;100258.91;5073508;28;20433;-47
2024/02/18 07:48:07;;;;;;;8.18;2.45;;;;;;;14.70;56.89;100259.78;5073603;28;20028;-49
2024/02/18 07:50:33;;;;;;;4.75;2.47;;;;;;;14.73;56.86;100264.72;5073633;28;20025;-49
2024/02/18 07:52:59;;;;;;;5.80;2.45;;;;;;;14.69;56.67;100265.25;5074632;28;20072;-49
2024/02/18 07:55:26;;;;;;;6.45;2.72;;;;;;;14.57;56.99;100257.84;5074621;28;20063;-49
2024/02/18 07:57:52;;;;;;;6.38;2.28;;;;;;;14.58;57.05;100263.94;5074568;28;20456;-49
2024/02/18 08:00:18;;;;;;;5.22;2.88;;;;;;;14.58;57.18;100256.03;5073236;28;20032;-49
2024/02/18 08:02:43;;;;;;;7.03;3.17;;;;;;;14.65;57.27;100258.72;5074457;28;20111;-49
2024/02/18 08:05:09;;;;;;;4.25;2.65;;;;;;;14.74;57.10;100250.47;5073433;28;20024;-47
2024/02/18 08:07:35;;;;;;;6.15;3.63;;;;;;;14.87;56.74;100252.44;5073134;28;20033;-47
2024/02/18 08:10:01;;;;;;;5.90;3.28;;;;;;;14.87;56.51;100251.59;5074360;28;20028;-47
2024/02/18 08:12:27;;;;;;;6.28;2.85;;;;;;;14.87;56.74;100256.91;5073018;28;20059;-46
2024/02/18 08:14:53;;;;;;;4.43;2.92;;;;;;;14.95;56.33;100257.59;5073262;28;20105;-47
2024/02/18 08:17:18;;;;;;;5.05;3.17;;;;;;;15.02;56.50;100270.06;5074255;28;20067;-47
2024/02/18 08:19:44;;;;;;;5.72;2.83;;;;;;;15.07;56.21;100262.34;5072959;28;20029;-47
2024/02/18 08:22:10;;;;;;;4.75;3.00;;;;;;;15.10;55.98;100267.28;5072864;28;20539;-46
2024/02/18 08:24:36;;;;;;;10.45;3.40;;;;;;;15.06;55.93;100266.03;5072769;28;20069;-47
2024/02/18 08:27:01;;;;;;;7.63;4.15;;;;;;;14.94;56.09;100263.06;5072746;28;20402;-46
2024/02/18 08:29:27;;;;;;;8.43;4.10;;;;;;;14.85;56.68;100266.84;5073923;28;20013;-46
2024/02/18 08:31:54;;;;;;;6.43;4.78;;;;;;;15.06;57.03;100266.84;5073870;28;20098;-46
2024/02/18 08:34:20;;;;;;;10.40;4.90;;;;;;;15.34;56.63;100258.91;5073934;28;20020;-46
2024/02/18 08:36:45;;;;;;;5.75;4.40;;;;;;;15.46;55.90;100263.69;5072570;28;20079;-47
2024/02/18 08:39:11;;;;;;;8.45;5.13;;;;;;;15.29;55.73;100255.22;5073772;28;20435;-46
2024/02/18 08:41:37;;;;;;;9.90;4.82;;;;;;;15.11;56.10;100259.16;5072480;28;20020;-47
2024/02/18 08:44:03;;;;;;;9.55;5.65;;;;;;;15.01;56.91;100261.31;5073599;28;20025;-47
2024/02/18 08:46:30;;;;;;;6.22;4.75;;;;;;;15.12;57.10;100250.22;5073891;28;20056;-47
2024/02/18 08:48:56;;;;;;;7.88;4.97;;;;;;;15.21;56.82;100253.53;5055912;28;20032;-47
2024/02/18 08:51:22;;;;;;;7.82;5.78;;;;;;;15.34;56.67;100261.56;5073862;28;20077;-47
2024/02/18 08:53:47;;;;;;;7.30;4.90;;;;;;;15.50;56.74;100262.28;5073852;28;20040;-47
2024/02/18 08:56:13;;;;;;;7.00;5.30;;;;;;;15.59;55.96;100261.09;5072219;28;20081;-47
2024/02/18 08:58:39;;;;;;;8.80;5.93;;;;;;;15.49;55.97;100250.91;5072140;28;20501;-47
2024/02/18 09:01:06;;;;;;;8.73;6.00;;;;;;;15.56;56.39;100248.28;5073408;28;20023;-47
2024/02/18 09:03:32;;;;;;;6.28;5.00;;;;;;;15.61;56.25;100245.84;5073306;28;20440;-46
2024/02/18 09:05:58;;;;;;;9.05;6.43;;;;;;;15.76;56.06;100236.00;5073334;28;20032;-47
2024/02/18 09:08:24;;;;;;;7.45;5.85;;;;;;;16.01;55.62;100232.03;5071921;28;20138;-47
2024/02/18 09:10:53;;;;;;;9.50;6.50;;;;;;;16.16;55.11;100233.53;5073233;28;20403;-47
2024/02/18 09:13:23;;;;;;;8.40;6.47;;;;;;;16.30;54.36;100241.53;5039703;28;20033;-47
2024/02/18 09:15:49;;;;;;;11.98;6.50;;;;;;;16.34;53.92;100251.53;5073056;28;20021;-46
2024/02/18 09:18:15;;;;;;;7.68;5.90;;;;;;;16.21;54.24;100250.66;5073364;28;20489;-47
2024/02/18 09:20:41;;;;;;;7.18;5.38;;;;;;;16.30;54.05;100255.59;5072971;28;20025;-47
2024/02/18 09:23:07;;;;;;;7.82;6.35;;;;;;;16.32;53.76;100250.09;5071365;28;20107;-47
2024/02/18 09:25:32;;;;;;;7.70;5.28;;;;;;;16.32;53.97;100248.25;5071581;28;20032;-47
2024/02/18 09:27:58;;;;;;;8.27;5.82;;;;;;;16.48;53.74;100249.72;5072832;28;20094;-47
2024/02/18 09:30:24;;;;;;;7.55;6.10;;;;;;;16.56;53.44;100249.53;5072845;28;20115;-47
2024/02/18 09:32:50;;;;;;;9.27;5.78;;;;;;;16.64;53.36;100242.41;5072701;28;20028;-47
2024/02/18 09:35:17;;;;;;;9.18;5.47;;;;;;;16.80;53.42;100247.31;5071400;28;20036;-46
2024/02/18 09:37:42;;;;;;;8.98;5.28;;;;;;;16.85;52.74;100233.50;5071146;28;20036;-47
2024/02/18 09:40:09;;;;;;;10.68;6.35;;;;;;;16.66;52.90;100232.41;5072610;28;20394;-48
2024/02/18 09:42:44;;;;;;;9.52;6.05;;;;;;;16.63;53.45;100232.84;5072436;28;20028;-48
2024/02/18 09:45:16;;;;;;;9.70;6.32;;;;;;;16.74;52.66;100232.22;5072610;28;20078;-49
2024/02/18 09:47:48;;;;;;;6.13;5.30;;;;;;;16.58;52.56;100226.31;5071218;28;20033;-49
2024/02/18 09:50:15;;;;;;;9.85;5.50;;;;;;;16.58;52.65;100228.97;5071089;28;20078;-48
2024/02/18 09:52:41;;;;;;;12.18;6.10;;;;;;;16.62;53.03;100226.72;5072638;28;20390;-48
2024/02/18 09:55:09;;;;;;;8.00;5.95;;;;;;;16.84;52.89;100229.19;5071029;28;20032;-48
2024/02/18 09:57:35;;;;;;;8.82;5.50;;;;;;;17.10;52.54;100225.72;5072318;28;20020;-49
2024/02/18 10:00:02;;;;;;;9.15;6.57;;;;;;;17.29;51.87;100218.78;5070930;28;20028;-48
2024/02/18 10:02:28;;;;;;;7.88;5.85;;;;;;;17.37;51.55;100224.69;5072127;28;20056;-48
2024/02/18 10:04:54;;;;;;;9.48;5.78;;;;;;;17.53;51.39;100228.75;5054303;28;20103;-48
2024/02/18 10:07:19;;;;;;;6.68;5.82;;;;;;;17.82;50.74;100225.81;5072128;28;20550;-48
2024/02/18 10:09:45;;;;;;;7.70;5.78;;;;;;;17.99;50.00;100229.66;5070788;28;20036;-49
2024/02/18 10:12:11;;;;;;;6.82;5.50;;;;;;;18.11;49.70;100222.66;5072054;28;20024;-49
2024/02/18 10:14:37;;;;;;;8.30;6.00;;;;;;;18.23;49.23;100225.47;5072061;28;20112;-47
2024/02/18 10:17:04;;;;;;;7.60;6.78;;;;;;;17.99;48.96;100228.81;5070697;28;20115;-46
2024/02/18 10:19:30;;;;;;;18.88;12.85;;;;;;;17.88;49.46;100227.66;5070721;28;20033;-46
2024/02/18 10:22:00;;;;;;;19.35;16.08;;;;;;;17.91;49.38;100224.59;5071957;28;20066;-46
2024/02/18 10:24:26;;;;;;;9.80;6.85;;;;;;;17.97;48.86;100223.75;5070475;28;20048;-46
2024/02/18 10:26:56;;;;;;;12.55;10.60;;;;;;;17.85;49.34;100215.63;5071828;28;20017;-46
2024/02/18 10:29:21;;;;;;;14.02;12.25;;;;;;;17.75;49.71;100205.41;5070542;28;20020;-46
2024/02/18 10:31:47;;;;;;;10.32;9.15;;;;;;;17.85;49.17;100207.66;5070485;28;20417;-46
2024/02/18 10:34:13;;;;;;;8.68;6.97;;;;;;;17.85;48.96;100210.31;5071846;28;20025;-46
2024/02/18 10:36:46;;;;;;;9.05;6.78;;;;;;;18.02;49.00;100218.59;5071801;28;20074;-46
2024/02/18 10:39:15;;;;;;;8.55;6.63;;;;;;;18.15;48.74;100221.19;5070606;28;20032;-46
2024/02/18 10:41:50;;;;;;;7.55;6.38;;;;;;;18.22;48.68;100233.63;5071780;28;20071;-46
2024/02/18 10:44:18;;;;;;;8.57;6.28;;;;;;;18.52;48.11;100220.59;5070397;28;20025;-47
2024/02/18 10:46:48;;;;;;;10.52;6.20;;;;;;;18.52;47.89;100223.25;5071725;28;20123;-46
2024/02/18 10:49:17;;;;;;;7.53;6.10;;;;;;;18.17;47.86;100237.75;5071021;28;20103;-46
2024/02/18 10:51:49;;;;;;;8.27;5.80;;;;;;;17.77;48.96;100237.88;5071627;28;20039;-46
2024/02/18 10:54:37;;;;;;;7.90;5.43;;;;;;;17.82;49.36;100231.91;5070311;28;20032;-46
2024/02/18 10:57:03;;;;;;;9.68;6.10;;;;;;;17.80;48.88;100235.81;5071663;28;20035;-46
2024/02/18 10:59:41;;;;;;;6.43;5.25;;;;;;;17.57;49.55;100229.16;5070400;28;20134;-46
2024/02/18 11:02:39;;;;;;;7.82;5.03;;;;;;;17.85;49.56;100228.91;5070318;28;20036;-46
2024/02/18 11:05:06;;;;;;;8.05;5.18;;;;;;;18.26;48.89;100232.19;5070412;28;20465;-46
2024/02/18 11:07:33;;;;;;;10.13;5.95;;;;;;;18.19;48.53;100234.03;5071472;28;20056;-46
2024/02/18 11:09:59;;;;;;;9.18;6.35;;;;;;;18.00;48.61;100235.78;5071507;28;20060;-46
2024/02/18 11:12:27;;;;;;;8.35;5.85;;;;;;;18.01;49.10;100238.22;5071469;28;20375;-46
2024/02/18 11:14:53;;;;;;;8.35;5.25;;;;;;;18.38;48.25;100232.31;5071452;28;20103;-46
2024/02/18 11:17:20;;;;;;;6.63;5.28;;;;;;;18.69;47.58;100229.69;5071342;28;20025;-46
2024/02/18 11:19:48;;;;;;;8.23;5.40;;;;;;;18.80;46.83;100230.03;5070057;28;20187;-46
2024/02/18 11:22:15;;;;;;;7.93;5.30;;;;;;;18.63;47.01;100232.38;5071253;28;20059;-46